sensor_id;sensor_type;location;lat;lon;timestamp;temperature;humidity
6988;DHT22;3534;49.960;8.018;2023-08-12T00:01:59;23.30;99.90
6988;DHT22;3534;49.960;8.018;2023-08-12T00:04:26;23.20;99.90
6988;DHT22;3534;49.960;8.018;2023-08-12T00:06:53;23.20;99.90
6988;DHT22;3534;49.960;8.018;2023-08-12T00:09:20;23.10;99.90
6988;DHT22;3534;49.960;8.018;2023-08-12T00:11:46;23.10;99.90
6988;DHT22;3534;49.960;8.018;2023-08-12T00:14:14;23.10;99.90
6988;DHT22;3534;49.960;8.018;2023-08-12T00:16:41;23.00;99.90
6988;DHT22;3534;49.960;8.018;2023-08-12T00:19:08;23.10;99.90
6988;DHT22;3534;49.960;8.018;2023-08-12T00:21:35;23.10;99.90
6988;DHT22;3534;49.960;8.018;2023-08-12T00:24:01;23.10;99.90
6988;DHT22;3534;49.960;8.018;2023-08-12T00:26:28;23.10;99.90
6988;DHT22;3534;49.960;8.018;2023-08-12T00:28:55;23.10;99.90
6988;DHT22;3534;49.960;8.018;2023-08-12T00:31:23;23.00;99.90
6988;DHT22;3534;49.960;8.018;2023-08-12T00:33:50;23.00;99.90
6988;DHT22;3534;49.960;8.018;2023-08-12T00:36:17;23.00;99.90
6988;DHT22;3534;49.960;8.018;2023-08-12T00:38:43;23.00;99.90
6988;DHT22;3534;49.960;8.018;2023-08-12T00:41:10;23.00;99.90
6988;DHT22;3534;49.960;8.018;2023-08-12T00:43:37;23.00;99.90
6988;DHT22;3534;49.960;8.018;2023-08-12T00:46:04;23.00;99.90
6988;DHT22;3534;49.960;8.018;2023-08-12T00:48:32;23.00;99.90
6988;DHT22;3534;49.960;8.018;2023-08-12T00:50:59;23.00;99.90
6988;DHT22;3534;49.960;8.018;2023-08-12T00:53:26;23.00;99.90
6988;DHT22;3534;49.960;8.018;2023-08-12T00:55:54;23.00;99.90
6988;DHT22;3534;49.960;8.018;2023-08-12T00:58:21;23.00;99.90
6988;DHT22;3534;49.960;8.018;2023-08-12T01:00:48;23.00;99.90
6988;DHT22;3534;49.960;8.018;2023-08-12T01:03:15;22.90;99.90
6988;DHT22;3534;49.960;8.018;2023-08-12T01:05:43;22.90;99.90
6988;DHT22;3534;49.960;8.018;2023-08-12T01:08:11;22.90;99.90
6988;DHT22;3534;49.960;8.018;2023-08-12T01:10:40;22.90;99.90
6988;DHT22;3534;49.960;8.018;2023-08-12T01:13:19;22.90;99.90
6988;DHT22;3534;49.960;8.018;2023-08-12T01:15:52;22.90;99.90
6988;DHT22;3534;49.960;8.018;2023-08-12T01:18:20;22.80;99.90
6988;DHT22;3534;49.960;8.018;2023-08-12T01:20:49;22.80;99.90
6988;DHT22;3534;49.960;8.018;2023-08-12T01:23:17;22.80;99.90
6988;DHT22;3534;49.960;8.018;2023-08-12T01:25:45;22.80;99.90
6988;DHT22;3534;49.960;8.018;2023-08-12T01:28:12;22.80;99.90
6988;DHT22;3534;49.960;8.018;2023-08-12T01:30:45;22.80;99.90
6988;DHT22;3534;49.960;8.018;2023-08-12T01:33:16;22.70;99.90
6988;DHT22;3534;49.960;8.018;2023-08-12T01:35:49;22.70;99.90
6988;DHT22;3534;49.960;8.018;2023-08-12T01:38:19;22.70;99.90
6988;DHT22;3534;49.960;8.018;2023-08-12T01:40:47;22.60;99.90
6988;DHT22;3534;49.960;8.018;2023-08-12T01:43:15;22.50;99.90
6988;DHT22;3534;49.960;8.018;2023-08-12T01:45:42;22.40;99.90
6988;DHT22;3534;49.960;8.018;2023-08-12T01:48:09;22.30;99.90
6988;DHT22;3534;49.960;8.018;2023-08-12T01:50:36;22.40;99.90
6988;DHT22;3534;49.960;8.018;2023-08-12T01:53:03;22.30;99.90
6988;DHT22;3534;49.960;8.018;2023-08-12T01:55:31;22.30;99.90
6988;DHT22;3534;49.960;8.018;2023-08-12T01:57:58;22.30;99.90
6988;DHT22;3534;49.960;8.018;2023-08-12T02:00:24;22.30;99.90
6988;DHT22;3534;49.960;8.018;2023-08-12T02:02:51;22.30;99.90
6988;DHT22;3534;49.960;8.018;2023-08-12T02:05:18;22.30;99.90
6988;DHT22;3534;49.960;8.018;2023-08-12T02:07:44;22.30;99.90
6988;DHT22;3534;49.960;8.018;2023-08-12T02:10:11;22.40;99.90
6988;DHT22;3534;49.960;8.018;2023-08-12T02:12:41;22.30;99.90
6988;DHT22;3534;49.960;8.018;2023-08-12T02:15:08;22.30;99.90
6988;DHT22;3534;49.960;8.018;2023-08-12T02:17:35;22.30;99.90
6988;DHT22;3534;49.960;8.018;2023-08-12T02:20:02;22.30;99.90
6988;DHT22;3534;49.960;8.018;2023-08-12T02:22:29;22.30;99.90
6988;DHT22;3534;49.960;8.018;2023-08-12T02:24:56;22.30;99.90
6988;DHT22;3534;49.960;8.018;2023-08-12T02:27:23;22.30;99.90
6988;DHT22;3534;49.960;8.018;2023-08-12T02:29:51;22.30;99.90
6988;DHT22;3534;49.960;8.018;2023-08-12T02:32:18;22.20;99.90
6988;DHT22;3534;49.960;8.018;2023-08-12T02:34:45;22.20;99.90
6988;DHT22;3534;49.960;8.018;2023-08-12T02:37:11;22.10;99.90
6988;DHT22;3534;49.960;8.018;2023-08-12T02:39:39;22.10;99.90
6988;DHT22;3534;49.960;8.018;2023-08-12T02:42:05;22.10;99.90
6988;DHT22;3534;49.960;8.018;2023-08-12T02:44:32;22.10;99.90
6988;DHT22;3534;49.960;8.018;2023-08-12T02:47:00;22.10;99.90
6988;DHT22;3534;49.960;8.018;2023-08-12T02:49:27;22.10;99.90
6988;DHT22;3534;49.960;8.018;2023-08-12T02:51:53;22.20;99.90
6988;DHT22;3534;49.960;8.018;2023-08-12T02:54:20;22.20;99.90
6988;DHT22;3534;49.960;8.018;2023-08-12T02:56:47;22.20;99.90
6988;DHT22;3534;49.960;8.018;2023-08-12T02:59:13;22.20;99.90
6988;DHT22;3534;49.960;8.018;2023-08-12T03:01:41;22.20;99.90
6988;DHT22;3534;49.960;8.018;2023-08-12T03:04:09;22.20;99.90
6988;DHT22;3534;49.960;8.018;2023-08-12T03:06:36;22.20;99.90
6988;DHT22;3534;49.960;8.018;2023-08-12T03:09:03;22.20;99.90
6988;DHT22;3534;49.960;8.018;2023-08-12T03:11:30;22.20;99.90
6988;DHT22;3534;49.960;8.018;2023-08-12T03:13:56;22.20;99.90
6988;DHT22;3534;49.960;8.018;2023-08-12T03:16:23;22.20;99.90
6988;DHT22;3534;49.960;8.018;2023-08-12T03:18:50;22.20;99.90
6988;DHT22;3534;49.960;8.018;2023-08-12T03:21:18;22.20;99.90
6988;DHT22;3534;49.960;8.018;2023-08-12T03:23:44;22.20;99.90
6988;DHT22;3534;49.960;8.018;2023-08-12T03:26:11;22.10;99.90
6988;DHT22;3534;49.960;8.018;2023-08-12T03:28:39;22.10;99.90
6988;DHT22;3534;49.960;8.018;2023-08-12T03:31:06;22.10;99.90
6988;DHT22;3534;49.960;8.018;2023-08-12T03:33:33;22.10;99.90
6988;DHT22;3534;49.960;8.018;2023-08-12T03:35:59;22.10;99.90
6988;DHT22;3534;49.960;8.018;2023-08-12T03:38:28;22.10;99.90
6988;DHT22;3534;49.960;8.018;2023-08-12T03:40:54;22.10;99.90
6988;DHT22;3534;49.960;8.018;2023-08-12T03:43:21;22.10;99.90
6988;DHT22;3534;49.960;8.018;2023-08-12T03:45:48;22.20;99.90
6988;DHT22;3534;49.960;8.018;2023-08-12T03:48:15;22.20;99.90
6988;DHT22;3534;49.960;8.018;2023-08-12T03:50:42;22.20;99.90
6988;DHT22;3534;49.960;8.018;2023-08-12T03:53:10;22.20;99.90
6988;DHT22;3534;49.960;8.018;2023-08-12T03:55:38;22.20;99.90
6988;DHT22;3534;49.960;8.018;2023-08-12T03:58:05;22.20;99.90
6988;DHT22;3534;49.960;8.018;2023-08-12T04:00:32;22.10;99.90
6988;DHT22;3534;49.960;8.018;2023-08-12T04:02:58;22.10;99.90
6988;DHT22;3534;49.960;8.018;2023-08-12T04:05:25;22.10;99.90
6988;DHT22;3534;49.960;8.018;2023-08-12T04:07:52;22.10;99.90
6988;DHT22;3534;49.960;8.018;2023-08-12T04:10:19;22.10;99.90
6988;DHT22;3534;49.960;8.018;2023-08-12T04:12:47;22.00;99.90
6988;DHT22;3534;49.960;8.018;2023-08-12T04:15:13;22.00;99.90
6988;DHT22;3534;49.960;8.018;2023-08-12T04:17:40;22.00;99.90
6988;DHT22;3534;49.960;8.018;2023-08-12T04:20:08;22.00;99.90
6988;DHT22;3534;49.960;8.018;2023-08-12T04:22:34;22.00;99.90
6988;DHT22;3534;49.960;8.018;2023-08-12T04:25:02;22.00;99.90
6988;DHT22;3534;49.960;8.018;2023-08-12T04:27:28;22.00;99.90
6988;DHT22;3534;49.960;8.018;2023-08-12T04:29:56;21.90;99.90
6988;DHT22;3534;49.960;8.018;2023-08-12T04:32:23;21.90;99.90
6988;DHT22;3534;49.960;8.018;2023-08-12T04:34:50;21.90;99.90
6988;DHT22;3534;49.960;8.018;2023-08-12T04:37:16;21.90;99.90
6988;DHT22;3534;49.960;8.018;2023-08-12T04:39:43;21.90;99.90
6988;DHT22;3534;49.960;8.018;2023-08-12T04:42:10;21.90;99.90
6988;DHT22;3534;49.960;8.018;2023-08-12T04:44:37;21.90;99.90
6988;DHT22;3534;49.960;8.018;2023-08-12T04:47:05;21.90;99.90
6988;DHT22;3534;49.960;8.018;2023-08-12T04:49:32;21.90;99.90
6988;DHT22;3534;49.960;8.018;2023-08-12T04:51:59;21.90;99.90
6988;DHT22;3534;49.960;8.018;2023-08-12T04:54:25;21.90;99.90
6988;DHT22;3534;49.960;8.018;2023-08-12T04:56:52;21.80;99.90
6988;DHT22;3534;49.960;8.018;2023-08-12T04:59:19;21.80;99.90
6988;DHT22;3534;49.960;8.018;2023-08-12T05:01:45;21.80;99.90
6988;DHT22;3534;49.960;8.018;2023-08-12T05:04:14;21.80;99.90
6988;DHT22;3534;49.960;8.018;2023-08-12T05:06:41;21.80;99.90
6988;DHT22;3534;49.960;8.018;2023-08-12T05:09:08;21.80;99.90
6988;DHT22;3534;49.960;8.018;2023-08-12T05:11:35;21.80;99.90
6988;DHT22;3534;49.960;8.018;2023-08-12T05:14:01;21.80;99.90
6988;DHT22;3534;49.960;8.018;2023-08-12T05:16:28;21.70;99.90
6988;DHT22;3534;49.960;8.018;2023-08-12T05:18:55;21.70;99.90
6988;DHT22;3534;49.960;8.018;2023-08-12T05:21:23;21.80;99.90
6988;DHT22;3534;49.960;8.018;2023-08-12T05:23:50;21.80;99.90
6988;DHT22;3534;49.960;8.018;2023-08-12T05:26:17;21.80;99.90
6988;DHT22;3534;49.960;8.018;2023-08-12T05:28:43;21.80;99.90
6988;DHT22;3534;49.960;8.018;2023-08-12T05:31:10;21.80;99.90
6988;DHT22;3534;49.960;8.018;2023-08-12T05:33:37;21.90;99.90
6988;DHT22;3534;49.960;8.018;2023-08-12T05:36:04;21.90;99.90
6988;DHT22;3534;49.960;8.018;2023-08-12T05:38:32;22.00;99.90
6988;DHT22;3534;49.960;8.018;2023-08-12T05:40:58;22.00;99.90
6988;DHT22;3534;49.960;8.018;2023-08-12T05:43:25;22.00;99.90
6988;DHT22;3534;49.960;8.018;2023-08-12T05:45:52;22.00;99.90
6988;DHT22;3534;49.960;8.018;2023-08-12T05:48:18;22.00;99.90
6988;DHT22;3534;49.960;8.018;2023-08-12T05:50:45;22.00;99.90
6988;DHT22;3534;49.960;8.018;2023-08-12T05:53:12;22.10;99.90
6988;DHT22;3534;49.960;8.018;2023-08-12T05:55:40;22.10;99.90
6988;DHT22;3534;49.960;8.018;2023-08-12T05:58:07;22.10;99.90
6988;DHT22;3534;49.960;8.018;2023-08-12T06:00:34;22.20;99.90
6988;DHT22;3534;49.960;8.018;2023-08-12T06:03:01;22.20;99.90
6988;DHT22;3534;49.960;8.018;2023-08-12T06:05:27;22.20;99.90
6988;DHT22;3534;49.960;8.018;2023-08-12T06:07:54;22.20;99.90
6988;DHT22;3534;49.960;8.018;2023-08-12T06:10:21;22.30;99.90
6988;DHT22;3534;49.960;8.018;2023-08-12T06:12:49;22.30;99.90
6988;DHT22;3534;49.960;8.018;2023-08-12T06:15:15;22.30;99.90
6988;DHT22;3534;49.960;8.018;2023-08-12T06:17:42;22.40;99.90
6988;DHT22;3534;49.960;8.018;2023-08-12T06:20:10;22.40;99.90
6988;DHT22;3534;49.960;8.018;2023-08-12T06:22:36;22.40;99.90
6988;DHT22;3534;49.960;8.018;2023-08-12T06:25:04;22.40;99.90
6988;DHT22;3534;49.960;8.018;2023-08-12T06:27:30;22.40;99.90
6988;DHT22;3534;49.960;8.018;2023-08-12T06:29:58;22.40;99.90
6988;DHT22;3534;49.960;8.018;2023-08-12T06:32:25;22.30;99.90
6988;DHT22;3534;49.960;8.018;2023-08-12T06:34:52;22.40;99.90
6988;DHT22;3534;49.960;8.018;2023-08-12T06:37:18;22.40;99.90
6988;DHT22;3534;49.960;8.018;2023-08-12T06:39:45;22.40;99.90
6988;DHT22;3534;49.960;8.018;2023-08-12T06:42:12;22.50;99.90
6988;DHT22;3534;49.960;8.018;2023-08-12T06:44:38;22.50;99.90
6988;DHT22;3534;49.960;8.018;2023-08-12T06:47:06;22.50;99.90
6988;DHT22;3534;49.960;8.018;2023-08-12T06:49:33;22.60;99.90
6988;DHT22;3534;49.960;8.018;2023-08-12T06:52:00;22.60;99.90
6988;DHT22;3534;49.960;8.018;2023-08-12T06:54:27;22.70;99.90
6988;DHT22;3534;49.960;8.018;2023-08-12T06:56:54;22.70;99.90
6988;DHT22;3534;49.960;8.018;2023-08-12T06:59:20;22.80;99.90
6988;DHT22;3534;49.960;8.018;2023-08-12T07:01:47;22.80;99.90
6988;DHT22;3534;49.960;8.018;2023-08-12T07:04:15;22.80;99.90
6988;DHT22;3534;49.960;8.018;2023-08-12T07:06:42;22.80;99.90
6988;DHT22;3534;49.960;8.018;2023-08-12T07:09:08;22.80;99.90
6988;DHT22;3534;49.960;8.018;2023-08-12T07:11:35;22.90;99.90
6988;DHT22;3534;49.960;8.018;2023-08-12T07:14:02;22.90;99.90
6988;DHT22;3534;49.960;8.018;2023-08-12T07:16:28;22.90;99.90
6988;DHT22;3534;49.960;8.018;2023-08-12T07:18:55;23.00;99.90
6988;DHT22;3534;49.960;8.018;2023-08-12T07:21:23;23.00;99.90
6988;DHT22;3534;49.960;8.018;2023-08-12T07:23:50;23.00;99.90
6988;DHT22;3534;49.960;8.018;2023-08-12T07:26:17;23.10;99.90
6988;DHT22;3534;49.960;8.018;2023-08-12T07:28:44;23.10;99.90
6988;DHT22;3534;49.960;8.018;2023-08-12T07:31:10;23.10;99.90
6988;DHT22;3534;49.960;8.018;2023-08-12T07:33:37;23.20;99.90
6988;DHT22;3534;49.960;8.018;2023-08-12T07:36:04;23.20;99.90
6988;DHT22;3534;49.960;8.018;2023-08-12T07:38:32;23.30;99.90
6988;DHT22;3534;49.960;8.018;2023-08-12T07:41:00;23.30;99.90
6988;DHT22;3534;49.960;8.018;2023-08-12T07:43:26;23.30;99.90
6988;DHT22;3534;49.960;8.018;2023-08-12T07:45:53;23.30;99.90
6988;DHT22;3534;49.960;8.018;2023-08-12T07:48:20;23.40;99.90
6988;DHT22;3534;49.960;8.018;2023-08-12T07:50:47;23.40;99.90
6988;DHT22;3534;49.960;8.018;2023-08-12T07:53:20;23.50;99.90
6988;DHT22;3534;49.960;8.018;2023-08-12T07:55:49;23.50;99.90
6988;DHT22;3534;49.960;8.018;2023-08-12T07:58:15;23.50;99.90
6988;DHT22;3534;49.960;8.018;2023-08-12T08:00:42;23.60;99.90
6988;DHT22;3534;49.960;8.018;2023-08-12T08:03:09;23.60;99.90
6988;DHT22;3534;49.960;8.018;2023-08-12T08:05:35;23.60;99.90
6988;DHT22;3534;49.960;8.018;2023-08-12T08:08:06;23.60;99.90
6988;DHT22;3534;49.960;8.018;2023-08-12T08:10:32;23.70;99.90
6988;DHT22;3534;49.960;8.018;2023-08-12T08:13:00;23.80;99.90
6988;DHT22;3534;49.960;8.018;2023-08-12T08:15:27;23.70;99.90
6988;DHT22;3534;49.960;8.018;2023-08-12T08:17:54;23.70;99.90
6988;DHT22;3534;49.960;8.018;2023-08-12T08:20:20;23.70;99.90
6988;DHT22;3534;49.960;8.018;2023-08-12T08:22:47;23.70;99.90
6988;DHT22;3534;49.960;8.018;2023-08-12T08:25:14;23.80;99.90
6988;DHT22;3534;49.960;8.018;2023-08-12T08:27:41;23.80;99.90
6988;DHT22;3534;49.960;8.018;2023-08-12T08:30:10;23.80;99.90
6988;DHT22;3534;49.960;8.018;2023-08-12T08:32:37;23.80;99.90
6988;DHT22;3534;49.960;8.018;2023-08-12T08:35:04;23.80;99.90
6988;DHT22;3534;49.960;8.018;2023-08-12T08:37:31;23.80;99.90
6988;DHT22;3534;49.960;8.018;2023-08-12T08:39:57;23.80;99.90
6988;DHT22;3534;49.960;8.018;2023-08-12T08:42:25;23.80;99.90
6988;DHT22;3534;49.960;8.018;2023-08-12T08:44:53;23.80;99.90
6988;DHT22;3534;49.960;8.018;2023-08-12T08:47:25;23.70;99.90
6988;DHT22;3534;49.960;8.018;2023-08-12T08:49:53;23.80;99.90
6988;DHT22;3534;49.960;8.018;2023-08-12T08:52:21;23.80;99.90
6988;DHT22;3534;49.960;8.018;2023-08-12T08:54:49;23.80;99.90
6988;DHT22;3534;49.960;8.018;2023-08-12T08:57:16;23.80;99.90
6988;DHT22;3534;49.960;8.018;2023-08-12T08:59:43;23.80;99.90
6988;DHT22;3534;49.960;8.018;2023-08-12T09:02:13;23.70;99.90
6988;DHT22;3534;49.960;8.018;2023-08-12T09:07:11;23.80;99.90
6988;DHT22;3534;49.960;8.018;2023-08-12T09:09:45;23.90;99.90
6988;DHT22;3534;49.960;8.018;2023-08-12T09:12:15;24.00;99.90
6988;DHT22;3534;49.960;8.018;2023-08-12T09:14:42;24.10;99.90
6988;DHT22;3534;49.960;8.018;2023-08-12T09:17:10;24.10;99.90
6988;DHT22;3534;49.960;8.018;2023-08-12T09:19:36;24.30;99.90
6988;DHT22;3534;49.960;8.018;2023-08-12T09:22:04;24.30;99.90
6988;DHT22;3534;49.960;8.018;2023-08-12T09:24:32;24.30;99.90
6988;DHT22;3534;49.960;8.018;2023-08-12T09:27:00;24.40;99.90
6988;DHT22;3534;49.960;8.018;2023-08-12T09:29:29;24.40;99.90
6988;DHT22;3534;49.960;8.018;2023-08-12T09:32:05;24.40;99.90
6988;DHT22;3534;49.960;8.018;2023-08-12T09:34:33;24.40;99.90
6988;DHT22;3534;49.960;8.018;2023-08-12T09:37:00;24.50;99.90
6988;DHT22;3534;49.960;8.018;2023-08-12T09:39:28;24.60;99.90
6988;DHT22;3534;49.960;8.018;2023-08-12T09:41:57;24.60;99.90
6988;DHT22;3534;49.960;8.018;2023-08-12T09:44:25;24.60;99.90
6988;DHT22;3534;49.960;8.018;2023-08-12T09:46:56;24.60;99.90
6988;DHT22;3534;49.960;8.018;2023-08-12T09:49:23;24.60;99.90
6988;DHT22;3534;49.960;8.018;2023-08-12T09:51:50;24.70;99.90
6988;DHT22;3534;49.960;8.018;2023-08-12T09:54:18;24.60;99.90
6988;DHT22;3534;49.960;8.018;2023-08-12T09:56:47;24.60;99.90
6988;DHT22;3534;49.960;8.018;2023-08-12T09:59:19;24.60;99.90
6988;DHT22;3534;49.960;8.018;2023-08-12T10:01:48;24.50;99.90
6988;DHT22;3534;49.960;8.018;2023-08-12T10:04:17;24.40;99.90
6988;DHT22;3534;49.960;8.018;2023-08-12T10:06:47;24.30;99.90
6988;DHT22;3534;49.960;8.018;2023-08-12T10:09:15;24.30;99.90
6988;DHT22;3534;49.960;8.018;2023-08-12T10:11:45;24.20;99.90
6988;DHT22;3534;49.960;8.018;2023-08-12T10:14:13;24.10;99.90
6988;DHT22;3534;49.960;8.018;2023-08-12T10:16:46;24.00;99.90
6988;DHT22;3534;49.960;8.018;2023-08-12T10:19:15;24.00;99.90
6988;DHT22;3534;49.960;8.018;2023-08-12T10:21:43;24.00;99.90
6988;DHT22;3534;49.960;8.018;2023-08-12T10:24:11;23.90;99.90
6988;DHT22;3534;49.960;8.018;2023-08-12T10:26:40;23.90;99.90
6988;DHT22;3534;49.960;8.018;2023-08-12T10:29:07;23.90;99.90
6988;DHT22;3534;49.960;8.018;2023-08-12T10:31:34;23.90;99.90
6988;DHT22;3534;49.960;8.018;2023-08-12T10:34:03;23.90;99.90
6988;DHT22;3534;49.960;8.018;2023-08-12T10:36:31;23.90;99.90
6988;DHT22;3534;49.960;8.018;2023-08-12T10:39:00;23.90;99.90
6988;DHT22;3534;49.960;8.018;2023-08-12T10:41:27;23.90;99.90
6988;DHT22;3534;49.960;8.018;2023-08-12T10:43:58;23.90;99.90
6988;DHT22;3534;49.960;8.018;2023-08-12T10:47:01;23.90;99.90
6988;DHT22;3534;49.960;8.018;2023-08-12T10:49:42;24.00;99.90
6988;DHT22;3534;49.960;8.018;2023-08-12T10:52:26;24.10;99.90
6988;DHT22;3534;49.960;8.018;2023-08-12T10:54:54;24.20;99.90
6988;DHT22;3534;49.960;8.018;2023-08-12T10:57:34;24.30;99.90
6988;DHT22;3534;49.960;8.018;2023-08-12T11:00:04;24.40;99.90
6988;DHT22;3534;49.960;8.018;2023-08-12T11:02:33;24.40;99.90
6988;DHT22;3534;49.960;8.018;2023-08-12T11:05:05;24.50;99.90
6988;DHT22;3534;49.960;8.018;2023-08-12T11:07:37;24.60;99.90
6988;DHT22;3534;49.960;8.018;2023-08-12T11:10:05;24.70;99.90
6988;DHT22;3534;49.960;8.018;2023-08-12T11:12:36;24.80;99.90
6988;DHT22;3534;49.960;8.018;2023-08-12T11:15:04;24.90;99.90
6988;DHT22;3534;49.960;8.018;2023-08-12T11:17:36;24.90;99.90
6988;DHT22;3534;49.960;8.018;2023-08-12T11:20:07;25.00;99.90
6988;DHT22;3534;49.960;8.018;2023-08-12T11:22:36;25.00;99.90
6988;DHT22;3534;49.960;8.018;2023-08-12T11:25:03;25.10;99.90
6988;DHT22;3534;49.960;8.018;2023-08-12T11:27:40;25.10;99.90
6988;DHT22;3534;49.960;8.018;2023-08-12T11:30:07;25.00;99.90
6988;DHT22;3534;49.960;8.018;2023-08-12T11:32:36;25.00;99.90
6988;DHT22;3534;49.960;8.018;2023-08-12T11:35:06;25.10;99.90
6988;DHT22;3534;49.960;8.018;2023-08-12T11:37:34;25.10;99.90
6988;DHT22;3534;49.960;8.018;2023-08-12T11:40:02;25.20;99.90
6988;DHT22;3534;49.960;8.018;2023-08-12T11:42:29;25.30;99.90
6988;DHT22;3534;49.960;8.018;2023-08-12T11:44:56;25.40;99.90
6988;DHT22;3534;49.960;8.018;2023-08-12T11:47:23;25.50;99.90
6988;DHT22;3534;49.960;8.018;2023-08-12T11:49:52;25.60;99.90
6988;DHT22;3534;49.960;8.018;2023-08-12T11:52:21;25.60;99.90
6988;DHT22;3534;49.960;8.018;2023-08-12T11:54:49;25.70;99.90
6988;DHT22;3534;49.960;8.018;2023-08-12T11:57:16;25.80;99.90
6988;DHT22;3534;49.960;8.018;2023-08-12T11:59:43;25.80;99.90
6988;DHT22;3534;49.960;8.018;2023-08-12T12:02:10;25.90;99.90
6988;DHT22;3534;49.960;8.018;2023-08-12T12:04:37;26.00;99.90
6988;DHT22;3534;49.960;8.018;2023-08-12T12:07:17;26.00;99.90
6988;DHT22;3534;49.960;8.018;2023-08-12T12:09:45;26.00;99.90
6988;DHT22;3534;49.960;8.018;2023-08-12T12:12:12;26.10;99.90
6988;DHT22;3534;49.960;8.018;2023-08-12T12:14:39;26.10;99.90
6988;DHT22;3534;49.960;8.018;2023-08-12T12:17:08;26.10;99.90
6988;DHT22;3534;49.960;8.018;2023-08-12T12:20:13;26.10;99.90
6988;DHT22;3534;49.960;8.018;2023-08-12T12:22:41;26.00;99.90
6988;DHT22;3534;49.960;8.018;2023-08-12T12:25:11;26.10;99.90
6988;DHT22;3534;49.960;8.018;2023-08-12T12:27:41;26.10;99.90
6988;DHT22;3534;49.960;8.018;2023-08-12T12:30:09;26.10;99.90
6988;DHT22;3534;49.960;8.018;2023-08-12T12:32:36;26.10;99.90
6988;DHT22;3534;49.960;8.018;2023-08-12T12:35:04;26.20;99.90
6988;DHT22;3534;49.960;8.018;2023-08-12T12:37:32;26.30;99.90
6988;DHT22;3534;49.960;8.018;2023-08-12T12:39:59;26.50;99.90
6988;DHT22;3534;49.960;8.018;2023-08-12T12:42:27;26.60;99.90
6988;DHT22;3534;49.960;8.018;2023-08-12T12:44:54;26.90;99.90
6988;DHT22;3534;49.960;8.018;2023-08-12T12:47:21;27.10;99.90
6988;DHT22;3534;49.960;8.018;2023-08-12T12:49:47;27.40;99.90
6988;DHT22;3534;49.960;8.018;2023-08-12T12:52:14;27.80;99.90
6988;DHT22;3534;49.960;8.018;2023-08-12T12:54:41;28.20;99.90
6988;DHT22;3534;49.960;8.018;2023-08-12T12:57:08;28.70;99.90
6988;DHT22;3534;49.960;8.018;2023-08-12T12:59:36;29.00;99.90
6988;DHT22;3534;49.960;8.018;2023-08-12T13:02:03;29.20;99.90
6988;DHT22;3534;49.960;8.018;2023-08-12T13:04:30;29.40;99.90
6988;DHT22;3534;49.960;8.018;2023-08-12T13:06:56;29.40;99.90
6988;DHT22;3534;49.960;8.018;2023-08-12T13:09:23;29.40;99.90
6988;DHT22;3534;49.960;8.018;2023-08-12T13:11:50;29.30;99.90
6988;DHT22;3534;49.960;8.018;2023-08-12T13:14:17;29.20;99.90
6988;DHT22;3534;49.960;8.018;2023-08-12T13:16:47;29.10;99.90
6988;DHT22;3534;49.960;8.018;2023-08-12T13:19:14;28.90;99.90
6988;DHT22;3534;49.960;8.018;2023-08-12T13:21:41;28.90;99.90
6988;DHT22;3534;49.960;8.018;2023-08-12T13:24:08;28.90;99.90
6988;DHT22;3534;49.960;8.018;2023-08-12T13:26:35;28.90;99.90
6988;DHT22;3534;49.960;8.018;2023-08-12T13:29:02;28.90;99.90
6988;DHT22;3534;49.960;8.018;2023-08-12T13:31:29;29.00;99.90
6988;DHT22;3534;49.960;8.018;2023-08-12T13:33:57;29.00;99.90
6988;DHT22;3534;49.960;8.018;2023-08-12T13:36:24;29.00;99.90
6988;DHT22;3534;49.960;8.018;2023-08-12T13:38:50;29.10;99.90
6988;DHT22;3534;49.960;8.018;2023-08-12T13:41:17;29.20;99.90
6988;DHT22;3534;49.960;8.018;2023-08-12T13:43:44;29.20;99.90
6988;DHT22;3534;49.960;8.018;2023-08-12T13:46:10;29.20;99.90
6988;DHT22;3534;49.960;8.018;2023-08-12T13:48:38;29.30;99.90
6988;DHT22;3534;49.960;8.018;2023-08-12T13:51:06;29.60;99.90
6988;DHT22;3534;49.960;8.018;2023-08-12T13:53:33;29.90;99.90
6988;DHT22;3534;49.960;8.018;2023-08-12T13:56:00;30.00;99.90
6988;DHT22;3534;49.960;8.018;2023-08-12T13:58:26;30.00;99.90
6988;DHT22;3534;49.960;8.018;2023-08-12T14:00:53;29.90;99.90
6988;DHT22;3534;49.960;8.018;2023-08-12T14:03:20;29.80;99.90
6988;DHT22;3534;49.960;8.018;2023-08-12T14:05:46;29.60;99.90
6988;DHT22;3534;49.960;8.018;2023-08-12T14:08:15;29.60;99.90
6988;DHT22;3534;49.960;8.018;2023-08-12T14:10:41;29.80;99.90
6988;DHT22;3534;49.960;8.018;2023-08-12T14:13:08;29.90;99.90
6988;DHT22;3534;49.960;8.018;2023-08-12T14:15:35;29.90;99.90
6988;DHT22;3534;49.960;8.018;2023-08-12T14:18:02;29.90;99.90
6988;DHT22;3534;49.960;8.018;2023-08-12T14:20:29;29.70;99.90
6988;DHT22;3534;49.960;8.018;2023-08-12T14:22:55;29.70;99.90
6988;DHT22;3534;49.960;8.018;2023-08-12T14:25:24;29.50;99.90
6988;DHT22;3534;49.960;8.018;2023-08-12T14:27:50;29.40;99.90
6988;DHT22;3534;49.960;8.018;2023-08-12T14:30:18;29.10;99.90
6988;DHT22;3534;49.960;8.018;2023-08-12T14:32:46;29.00;99.90
6988;DHT22;3534;49.960;8.018;2023-08-12T14:35:12;28.90;99.90
6988;DHT22;3534;49.960;8.018;2023-08-12T14:37:39;28.80;99.90
6988;DHT22;3534;49.960;8.018;2023-08-12T14:40:07;28.70;99.90
6988;DHT22;3534;49.960;8.018;2023-08-12T14:42:36;28.70;99.90
6988;DHT22;3534;49.960;8.018;2023-08-12T14:45:03;28.70;99.90
6988;DHT22;3534;49.960;8.018;2023-08-12T14:47:29;28.80;99.90
6988;DHT22;3534;49.960;8.018;2023-08-12T14:49:56;28.80;99.90
6988;DHT22;3534;49.960;8.018;2023-08-12T14:52:23;28.80;99.90
6988;DHT22;3534;49.960;8.018;2023-08-12T14:54:50;28.70;99.90
6988;DHT22;3534;49.960;8.018;2023-08-12T14:57:17;28.70;99.90
6988;DHT22;3534;49.960;8.018;2023-08-12T14:59:46;28.60;99.90
6988;DHT22;3534;49.960;8.018;2023-08-12T15:02:16;28.50;99.90
6988;DHT22;3534;49.960;8.018;2023-08-12T15:04:42;28.50;99.90
6988;DHT22;3534;49.960;8.018;2023-08-12T15:07:09;28.40;99.90
6988;DHT22;3534;49.960;8.018;2023-08-12T15:09:36;28.20;99.90
6988;DHT22;3534;49.960;8.018;2023-08-12T15:12:03;28.10;99.90
6988;DHT22;3534;49.960;8.018;2023-08-12T15:14:30;28.00;99.90
6988;DHT22;3534;49.960;8.018;2023-08-12T15:16:58;28.00;99.90
6988;DHT22;3534;49.960;8.018;2023-08-12T15:19:24;27.90;99.90
6988;DHT22;3534;49.960;8.018;2023-08-12T15:21:51;27.80;99.90
6988;DHT22;3534;49.960;8.018;2023-08-12T15:24:18;27.80;99.90
6988;DHT22;3534;49.960;8.018;2023-08-12T15:26:45;27.70;99.90
6988;DHT22;3534;49.960;8.018;2023-08-12T15:29:11;27.70;99.90
6988;DHT22;3534;49.960;8.018;2023-08-12T15:31:38;27.70;99.90
6988;DHT22;3534;49.960;8.018;2023-08-12T15:34:06;27.70;99.90
6988;DHT22;3534;49.960;8.018;2023-08-12T15:36:33;27.60;99.90
6988;DHT22;3534;49.960;8.018;2023-08-12T15:39:01;27.60;99.90
6988;DHT22;3534;49.960;8.018;2023-08-12T15:41:27;27.70;99.90
6988;DHT22;3534;49.960;8.018;2023-08-12T15:43:54;27.80;99.90
6988;DHT22;3534;49.960;8.018;2023-08-12T15:46:21;27.70;99.90
6988;DHT22;3534;49.960;8.018;2023-08-12T15:48:48;27.60;99.90
6988;DHT22;3534;49.960;8.018;2023-08-12T15:51:16;27.50;99.90
6988;DHT22;3534;49.960;8.018;2023-08-12T15:53:42;27.40;99.90
6988;DHT22;3534;49.960;8.018;2023-08-12T15:56:09;27.40;99.90
6988;DHT22;3534;49.960;8.018;2023-08-12T15:58:36;27.40;99.90
6988;DHT22;3534;49.960;8.018;2023-08-12T16:01:03;27.50;99.90
6988;DHT22;3534;49.960;8.018;2023-08-12T16:03:29;27.70;99.90
6988;DHT22;3534;49.960;8.018;2023-08-12T16:05:57;28.00;99.90
6988;DHT22;3534;49.960;8.018;2023-08-12T16:08:26;28.00;99.90